sensor_id;sensor_type;location;lat;lon;timestamp;pressure;altitude;pressure_sealevel;temperature;humidity
16355;BME280;8287;51.644;8.494;2023-07-09T00:00:53;100613.41;;;24.19;54.99
16355;BME280;8287;51.644;8.494;2023-07-09T00:03:20;100607.97;;;23.95;54.98
16355;BME280;8287;51.644;8.494;2023-07-09T00:05:48;100616.13;;;24.16;53.20
16355;BME280;8287;51.644;8.494;2023-07-09T00:08:25;100612.25;;;24.17;53.32
16355;BME280;8287;51.644;8.494;2023-07-09T00:10:53;100613.78;;;24.07;53.56
16355;BME280;8287;51.644;8.494;2023-07-09T00:13:20;100606.44;;;24.11;53.67
16355;BME280;8287;51.644;8.494;2023-07-09T00:15:47;100615.72;;;24.03;54.22
16355;BME280;8287;51.644;8.494;2023-07-09T00:18:15;100609.53;;;24.17;53.59
16355;BME280;8287;51.644;8.494;2023-07-09T00:20:42;100621.13;;;24.24;54.00
16355;BME280;8287;51.644;8.494;2023-07-09T00:23:09;100618.81;;;24.12;54.86
16355;BME280;8287;51.644;8.494;2023-07-09T00:25:39;100613.00;;;24.20;54.84
16355;BME280;8287;51.644;8.494;2023-07-09T00:28:12;100612.63;;;24.22;53.89
16355;BME280;8287;51.644;8.494;2023-07-09T00:30:39;100611.06;;;24.14;54.68
16355;BME280;8287;51.644;8.494;2023-07-09T00:33:10;100616.50;;;24.14;54.82
16355;BME280;8287;51.644;8.494;2023-07-09T00:35:38;100615.72;;;23.93;55.33
16355;BME280;8287;51.644;8.494;2023-07-09T00:38:10;100607.59;;;23.86;56.44
16355;BME280;8287;51.644;8.494;2023-07-09T00:40:46;100612.53;;;23.59;56.54
16355;BME280;8287;51.644;8.494;2023-07-09T00:43:16;100613.69;;;23.48;56.93
16355;BME280;8287;51.644;8.494;2023-07-09T00:45:42;100607.06;;;23.31;58.30
16355;BME280;8287;51.644;8.494;2023-07-09T00:48:12;100607.72;;;23.07;58.95
16355;BME280;8287;51.644;8.494;2023-07-09T00:50:46;100619.47;;;23.39;57.50
16355;BME280;8287;51.644;8.494;2023-07-09T00:53:18;100607.88;;;23.42;57.70
16355;BME280;8287;51.644;8.494;2023-07-09T00:55:48;100606.94;;;23.03;59.54
16355;BME280;8287;51.644;8.494;2023-07-09T00:58:18;100603.84;;;23.05;59.04
16355;BME280;8287;51.644;8.494;2023-07-09T01:00:49;100610.19;;;23.40;57.15
16355;BME280;8287;51.644;8.494;2023-07-09T01:03:24;100612.13;;;23.36;57.70
16355;BME280;8287;51.644;8.494;2023-07-09T01:05:57;100599.25;;;23.12;58.80
16355;BME280;8287;51.644;8.494;2023-07-09T01:08:24;100601.50;;;22.93;59.80
16355;BME280;8287;51.644;8.494;2023-07-09T01:10:56;100601.50;;;22.96;59.14
16355;BME280;8287;51.644;8.494;2023-07-09T01:13:23;100600.75;;;23.03;58.29
16355;BME280;8287;51.644;8.494;2023-07-09T01:15:52;100597.31;;;23.09;57.81
16355;BME280;8287;51.644;8.494;2023-07-09T01:18:19;100591.53;;;23.11;57.65
16355;BME280;8287;51.644;8.494;2023-07-09T01:20:46;100588.88;;;23.14;57.46
16355;BME280;8287;51.644;8.494;2023-07-09T01:23:14;100596.25;;;23.31;56.78
16355;BME280;8287;51.644;8.494;2023-07-09T01:25:44;100597.06;;;23.39;56.69
16355;BME280;8287;51.644;8.494;2023-07-09T01:28:11;100600.16;;;23.37;56.93
16355;BME280;8287;51.644;8.494;2023-07-09T01:30:40;100604.75;;;23.37;56.75
16355;BME280;8287;51.644;8.494;2023-07-09T01:33:07;100600.88;;;23.34;56.98
16355;BME280;8287;51.644;8.494;2023-07-09T01:35:37;100607.84;;;23.32;57.12
16355;BME280;8287;51.644;8.494;2023-07-09T01:38:06;100603.97;;;23.26;57.17
16355;BME280;8287;51.644;8.494;2023-07-09T01:40:35;100606.25;;;23.17;58.03
16355;BME280;8287;51.644;8.494;2023-07-09T01:43:03;100599.63;;;23.11;59.23
16355;BME280;8287;51.644;8.494;2023-07-09T01:45:32;100606.13;;;22.89;60.50
16355;BME280;8287;51.644;8.494;2023-07-09T01:48:01;100601.47;;;22.89;60.45
16355;BME280;8287;51.644;8.494;2023-07-09T01:50:28;100601.84;;;22.81;60.70
16355;BME280;8287;51.644;8.494;2023-07-09T01:52:55;100605.28;;;22.81;60.45
16355;BME280;8287;51.644;8.494;2023-07-09T01:55:22;100597.56;;;22.76;61.05
16355;BME280;8287;51.644;8.494;2023-07-09T01:57:51;100602.94;;;22.73;61.00
16355;BME280;8287;51.644;8.494;2023-07-09T02:00:17;100605.25;;;22.74;60.19
16355;BME280;8287;51.644;8.494;2023-07-09T02:02:46;100617.22;;;22.73;60.17
16355;BME280;8287;51.644;8.494;2023-07-09T02:05:15;100613.00;;;22.79;59.62
16355;BME280;8287;51.644;8.494;2023-07-09T02:07:42;100607.53;;;22.65;61.59
16355;BME280;8287;51.644;8.494;2023-07-09T02:10:10;100602.91;;;22.66;60.44
16355;BME280;8287;51.644;8.494;2023-07-09T02:12:37;100608.25;;;22.59;61.97
16355;BME280;8287;51.644;8.494;2023-07-09T02:15:06;100603.88;;;22.40;62.70
16355;BME280;8287;51.644;8.494;2023-07-09T02:17:33;100609.72;;;22.46;62.97
16355;BME280;8287;51.644;8.494;2023-07-09T02:20:00;100602.75;;;22.41;63.14
16355;BME280;8287;51.644;8.494;2023-07-09T02:22:26;100601.16;;;22.40;63.79
16355;BME280;8287;51.644;8.494;2023-07-09T02:24:53;100605.38;;;22.38;62.74
16355;BME280;8287;51.644;8.494;2023-07-09T02:27:20;100604.56;;;22.30;64.25
16355;BME280;8287;51.644;8.494;2023-07-09T02:29:47;100603.38;;;22.28;63.49
16355;BME280;8287;51.644;8.494;2023-07-09T02:32:17;100600.22;;;22.15;64.55
16355;BME280;8287;51.644;8.494;2023-07-09T02:34:45;100607.63;;;22.22;63.91
16355;BME280;8287;51.644;8.494;2023-07-09T02:37:15;100609.84;;;22.13;64.67
16355;BME280;8287;51.644;8.494;2023-07-09T02:39:42;100606.75;;;22.11;64.68
16355;BME280;8287;51.644;8.494;2023-07-09T02:42:09;100612.41;;;21.95;65.68
16355;BME280;8287;51.644;8.494;2023-07-09T02:44:36;100618.09;;;21.83;66.76
16355;BME280;8287;51.644;8.494;2023-07-09T02:47:03;100623.16;;;21.92;66.59
16355;BME280;8287;51.644;8.494;2023-07-09T02:49:32;100620.53;;;21.99;66.47
16355;BME280;8287;51.644;8.494;2023-07-09T02:51:59;100623.19;;;21.95;65.84
16355;BME280;8287;51.644;8.494;2023-07-09T02:54:26;100624.69;;;21.89;65.80
16355;BME280;8287;51.644;8.494;2023-07-09T02:56:52;100621.19;;;21.85;66.35
16355;BME280;8287;51.644;8.494;2023-07-09T02:59:19;100618.81;;;21.80;66.10
16355;BME280;8287;51.644;8.494;2023-07-09T03:01:46;100629.97;;;21.75;66.22
16355;BME280;8287;51.644;8.494;2023-07-09T03:04:13;100624.59;;;21.82;67.07
16355;BME280;8287;51.644;8.494;2023-07-09T03:06:41;100630.72;;;21.76;67.13
16355;BME280;8287;51.644;8.494;2023-07-09T03:09:08;100625.91;;;21.59;67.88
16355;BME280;8287;51.644;8.494;2023-07-09T03:11:35;100635.81;;;21.48;68.33
16355;BME280;8287;51.644;8.494;2023-07-09T03:14:02;100632.06;;;21.59;67.28
16355;BME280;8287;51.644;8.494;2023-07-09T03:16:30;100634.34;;;21.57;67.53
16355;BME280;8287;51.644;8.494;2023-07-09T03:18:57;100642.22;;;21.69;67.30
16355;BME280;8287;51.644;8.494;2023-07-09T03:21:25;100650.72;;;21.71;66.58
16355;BME280;8287;51.644;8.494;2023-07-09T03:23:53;100639.41;;;21.62;67.04
16355;BME280;8287;51.644;8.494;2023-07-09T03:26:20;100639.94;;;21.71;67.24
16355;BME280;8287;51.644;8.494;2023-07-09T03:28:47;100648.38;;;21.70;66.90
16355;BME280;8287;51.644;8.494;2023-07-09T03:31:15;100652.50;;;21.60;68.03
16355;BME280;8287;51.644;8.494;2023-07-09T03:33:42;100643.66;;;21.63;67.29
16355;BME280;8287;51.644;8.494;2023-07-09T03:36:09;100640.09;;;21.52;68.27
16355;BME280;8287;51.644;8.494;2023-07-09T03:38:35;100639.66;;;21.47;68.54
16355;BME280;8287;51.644;8.494;2023-07-09T03:41:04;100652.47;;;21.57;68.33
16355;BME280;8287;51.644;8.494;2023-07-09T03:43:31;100646.19;;;21.49;68.78
16355;BME280;8287;51.644;8.494;2023-07-09T03:45:58;100652.03;;;21.51;68.61
16355;BME280;8287;51.644;8.494;2023-07-09T03:48:25;100647.44;;;21.55;68.24
16355;BME280;8287;51.644;8.494;2023-07-09T03:50:52;100649.75;;;21.57;68.05
16355;BME280;8287;51.644;8.494;2023-07-09T03:53:18;100641.72;;;21.60;68.39
16355;BME280;8287;51.644;8.494;2023-07-09T03:55:46;100649.75;;;21.57;68.60
16355;BME280;8287;51.644;8.494;2023-07-09T03:58:14;100647.03;;;21.53;68.54
16355;BME280;8287;51.644;8.494;2023-07-09T04:00:41;100641.28;;;21.55;69.01
16355;BME280;8287;51.644;8.494;2023-07-09T04:03:08;100639.75;;;21.57;69.47
16355;BME280;8287;51.644;8.494;2023-07-09T04:05:35;100645.13;;;21.57;69.06
16355;BME280;8287;51.644;8.494;2023-07-09T04:08:03;100638.56;;;21.55;69.80
16355;BME280;8287;51.644;8.494;2023-07-09T04:10:30;100645.91;;;21.58;69.31
16355;BME280;8287;51.644;8.494;2023-07-09T04:12:57;100637.09;;;21.61;68.37
16355;BME280;8287;51.644;8.494;2023-07-09T04:15:26;100640.16;;;21.59;68.49
16355;BME280;8287;51.644;8.494;2023-07-09T04:17:52;100629.84;;;21.65;68.49
16355;BME280;8287;51.644;8.494;2023-07-09T04:20:20;100641.06;;;21.70;69.45
16355;BME280;8287;51.644;8.494;2023-07-09T04:22:46;100646.47;;;21.70;69.68
16355;BME280;8287;51.644;8.494;2023-07-09T04:25:13;100642.31;;;21.76;68.82
16355;BME280;8287;51.644;8.494;2023-07-09T04:27:40;100645.00;;;21.76;69.44
16355;BME280;8287;51.644;8.494;2023-07-09T04:30:09;100635.38;;;21.79;70.10
16355;BME280;8287;51.644;8.494;2023-07-09T04:32:38;100641.53;;;21.79;70.55
16355;BME280;8287;51.644;8.494;2023-07-09T04:35:05;100628.09;;;21.83;70.43
16355;BME280;8287;51.644;8.494;2023-07-09T04:37:32;100633.97;;;21.92;69.99
16355;BME280;8287;51.644;8.494;2023-07-09T04:39:58;100633.19;;;21.95;70.30
16355;BME280;8287;51.644;8.494;2023-07-09T04:42:25;100630.06;;;21.89;71.14
16355;BME280;8287;51.644;8.494;2023-07-09T04:44:52;100632.09;;;21.99;70.58
16355;BME280;8287;51.644;8.494;2023-07-09T04:47:18;100633.69;;;22.07;69.48
16355;BME280;8287;51.644;8.494;2023-07-09T04:49:46;100638.44;;;22.17;68.90
16355;BME280;8287;51.644;8.494;2023-07-09T04:52:13;100636.53;;;22.21;69.03
16355;BME280;8287;51.644;8.494;2023-07-09T04:54:41;100633.47;;;22.23;68.48
16355;BME280;8287;51.644;8.494;2023-07-09T04:57:10;100636.59;;;22.28;69.88
16355;BME280;8287;51.644;8.494;2023-07-09T04:59:37;100644.38;;;22.40;67.00
16355;BME280;8287;51.644;8.494;2023-07-09T05:02:04;100642.16;;;22.49;68.00
16355;BME280;8287;51.644;8.494;2023-07-09T05:04:30;100639.91;;;22.55;70.79
16355;BME280;8287;51.644;8.494;2023-07-09T05:06:59;100641.81;;;22.54;73.32
16355;BME280;8287;51.644;8.494;2023-07-09T05:09:25;100639.91;;;22.58;73.34
16355;BME280;8287;51.644;8.494;2023-07-09T05:11:52;100632.25;;;22.64;72.50
16355;BME280;8287;51.644;8.494;2023-07-09T05:14:19;100635.75;;;22.75;69.97
16355;BME280;8287;51.644;8.494;2023-07-09T05:16:45;100631.56;;;22.81;68.90
16355;BME280;8287;51.644;8.494;2023-07-09T05:19:12;100636.56;;;22.82;69.09
16355;BME280;8287;51.644;8.494;2023-07-09T05:21:39;100637.00;;;22.84;70.04
16355;BME280;8287;51.644;8.494;2023-07-09T05:24:07;100636.28;;;22.98;68.48
16355;BME280;8287;51.644;8.494;2023-07-09T05:26:34;100638.63;;;23.06;69.32
16355;BME280;8287;51.644;8.494;2023-07-09T05:29:02;100637.47;;;23.11;70.24
16355;BME280;8287;51.644;8.494;2023-07-09T05:31:29;100633.69;;;23.22;70.75
16355;BME280;8287;51.644;8.494;2023-07-09T05:33:56;100632.19;;;23.28;69.97
16355;BME280;8287;51.644;8.494;2023-07-09T05:36:22;100641.09;;;23.39;69.57
16355;BME280;8287;51.644;8.494;2023-07-09T05:38:49;100644.25;;;23.55;68.40
16355;BME280;8287;51.644;8.494;2023-07-09T05:41:17;100650.84;;;23.72;68.20
16355;BME280;8287;51.644;8.494;2023-07-09T05:43:44;100648.19;;;23.86;68.10
16355;BME280;8287;51.644;8.494;2023-07-09T05:46:12;100645.50;;;23.93;68.26
16355;BME280;8287;51.644;8.494;2023-07-09T05:48:39;100654.38;;;24.00;69.51
16355;BME280;8287;51.644;8.494;2023-07-09T05:51:06;100650.91;;;23.89;70.44
16355;BME280;8287;51.644;8.494;2023-07-09T05:53:32;100650.13;;;24.03;69.96
16355;BME280;8287;51.644;8.494;2023-07-09T05:55:59;100650.53;;;24.15;68.91
16355;BME280;8287;51.644;8.494;2023-07-09T05:58:27;100646.28;;;24.31;69.38
16355;BME280;8287;51.644;8.494;2023-07-09T06:00:54;100655.16;;;24.42;68.48
16355;BME280;8287;51.644;8.494;2023-07-09T06:03:25;100655.19;;;24.56;68.31
16355;BME280;8287;51.644;8.494;2023-07-09T06:05:52;100662.53;;;24.70;68.14
16355;BME280;8287;51.644;8.494;2023-07-09T06:08:19;100659.03;;;24.73;69.13
16355;BME280;8287;51.644;8.494;2023-07-09T06:10:52;100646.63;;;24.72;69.87
16355;BME280;8287;51.644;8.494;2023-07-09T06:13:19;100662.09;;;24.82;70.78
16355;BME280;8287;51.644;8.494;2023-07-09T06:15:48;100660.53;;;24.95;67.92
16355;BME280;8287;51.644;8.494;2023-07-09T06:18:14;100664.34;;;25.04;69.87
16355;BME280;8287;51.644;8.494;2023-07-09T06:20:46;100655.78;;;25.20;67.99
16355;BME280;8287;51.644;8.494;2023-07-09T06:23:13;100662.31;;;25.40;66.96
16355;BME280;8287;51.644;8.494;2023-07-09T06:25:40;100658.00;;;25.53;66.79
16355;BME280;8287;51.644;8.494;2023-07-09T06:28:07;100654.47;;;25.56;67.48
16355;BME280;8287;51.644;8.494;2023-07-09T06:30:33;100658.72;;;25.57;68.27
16355;BME280;8287;51.644;8.494;2023-07-09T06:33:01;100654.84;;;25.58;68.69
16355;BME280;8287;51.644;8.494;2023-07-09T06:35:28;100655.53;;;25.69;70.08
16355;BME280;8287;51.644;8.494;2023-07-09T06:37:55;100653.13;;;25.81;67.82
16355;BME280;8287;51.644;8.494;2023-07-09T06:40:22;100660.03;;;26.00;66.95
16355;BME280;8287;51.644;8.494;2023-07-09T06:42:50;100668.09;;;26.14;66.57
16355;BME280;8287;51.644;8.494;2023-07-09T06:45:17;100659.81;;;26.28;66.48
16355;BME280;8287;51.644;8.494;2023-07-09T06:47:43;100670.59;;;26.38;67.08
16355;BME280;8287;51.644;8.494;2023-07-09T06:50:12;100654.94;;;26.53;65.65
16355;BME280;8287;51.644;8.494;2023-07-09T06:52:38;100655.56;;;26.71;65.90
16355;BME280;8287;51.644;8.494;2023-07-09T06:55:05;100665.41;;;26.95;65.97
16355;BME280;8287;51.644;8.494;2023-07-09T06:57:32;100656.03;;;26.99;66.38
16355;BME280;8287;51.644;8.494;2023-07-09T06:59:59;100659.06;;;27.05;68.17
16355;BME280;8287;51.644;8.494;2023-07-09T07:02:26;100667.91;;;27.12;66.64
16355;BME280;8287;51.644;8.494;2023-07-09T07:04:52;100666.59;;;27.27;66.02
16355;BME280;8287;51.644;8.494;2023-07-09T07:07:20;100662.00;;;27.51;63.79
16355;BME280;8287;51.644;8.494;2023-07-09T07:09:47;100663.69;;;27.68;64.09
16355;BME280;8287;51.644;8.494;2023-07-09T07:12:22;100667.41;;;27.84;64.18
16355;BME280;8287;51.644;8.494;2023-07-09T07:14:49;100664.53;;;27.91;65.22
16355;BME280;8287;51.644;8.494;2023-07-09T07:17:16;100661.06;;;27.91;66.72
16355;BME280;8287;51.644;8.494;2023-07-09T07:19:43;100661.69;;;28.24;63.79
16355;BME280;8287;51.644;8.494;2023-07-09T07:22:10;100660.59;;;28.45;63.07
16355;BME280;8287;51.644;8.494;2023-07-09T07:24:38;100665.03;;;28.35;64.96
16355;BME280;8287;51.644;8.494;2023-07-09T07:27:05;100660.00;;;28.76;62.16
16355;BME280;8287;51.644;8.494;2023-07-09T07:29:32;100654.34;;;28.87;60.64
16355;BME280;8287;51.644;8.494;2023-07-09T07:31:58;100645.53;;;29.18;61.23
16355;BME280;8287;51.644;8.494;2023-07-09T07:34:26;100650.44;;;29.46;59.47
16355;BME280;8287;51.644;8.494;2023-07-09T07:36:52;100658.13;;;29.51;59.15
16355;BME280;8287;51.644;8.494;2023-07-09T07:39:19;100662.88;;;29.83;58.85
16355;BME280;8287;51.644;8.494;2023-07-09T07:41:47;100662.25;;;29.59;58.78
16355;BME280;8287;51.644;8.494;2023-07-09T07:44:16;100659.84;;;29.42;59.76
16355;BME280;8287;51.644;8.494;2023-07-09T07:46:43;100660.97;;;29.64;60.32
16355;BME280;8287;51.644;8.494;2023-07-09T07:49:10;100665.13;;;30.04;58.07
16355;BME280;8287;51.644;8.494;2023-07-09T07:51:37;100662.06;;;30.18;57.94
16355;BME280;8287;51.644;8.494;2023-07-09T07:54:03;100664.00;;;30.01;56.03
16355;BME280;8287;51.644;8.494;2023-07-09T07:56:30;100660.06;;;30.02;53.30
16355;BME280;8287;51.644;8.494;2023-07-09T07:58:58;100653.66;;;30.25;54.12
16355;BME280;8287;51.644;8.494;2023-07-09T08:01:25;100659.97;;;30.70;53.78
16355;BME280;8287;51.644;8.494;2023-07-09T08:03:51;100660.34;;;30.84;54.32
16355;BME280;8287;51.644;8.494;2023-07-09T08:06:18;100646.19;;;31.14;51.87
16355;BME280;8287;51.644;8.494;2023-07-09T08:08:45;100647.16;;;31.08;53.65
16355;BME280;8287;51.644;8.494;2023-07-09T08:11:11;100653.47;;;31.33;53.00
16355;BME280;8287;51.644;8.494;2023-07-09T08:13:38;100652.09;;;31.54;50.77
16355;BME280;8287;51.644;8.494;2023-07-09T08:16:07;100652.50;;;31.65;51.92
16355;BME280;8287;51.644;8.494;2023-07-09T08:18:36;100642.69;;;31.80;48.15
16355;BME280;8287;51.644;8.494;2023-07-09T08:21:03;100647.25;;;31.95;48.73
16355;BME280;8287;51.644;8.494;2023-07-09T08:23:30;100645.81;;;32.03;47.49
16355;BME280;8287;51.644;8.494;2023-07-09T08:25:58;100648.38;;;31.85;47.92
16355;BME280;8287;51.644;8.494;2023-07-09T08:28:25;100644.06;;;31.47;51.17
16355;BME280;8287;51.644;8.494;2023-07-09T08:30:52;100642.75;;;31.51;50.76
16355;BME280;8287;51.644;8.494;2023-07-09T08:33:20;100645.84;;;31.91;50.54
16355;BME280;8287;51.644;8.494;2023-07-09T08:35:49;100641.34;;;31.84;48.60
16355;BME280;8287;51.644;8.494;2023-07-09T08:38:15;100644.97;;;31.81;48.07
16355;BME280;8287;51.644;8.494;2023-07-09T08:40:50;100642.88;;;31.98;47.15
16355;BME280;8287;51.644;8.494;2023-07-09T08:43:28;100641.88;;;32.04;48.46
16355;BME280;8287;51.644;8.494;2023-07-09T08:46:03;100637.88;;;32.30;48.31
16355;BME280;8287;51.644;8.494;2023-07-09T08:48:36;100638.06;;;32.48;47.91
16355;BME280;8287;51.644;8.494;2023-07-09T08:51:10;100644.44;;;32.66;47.94
16355;BME280;8287;51.644;8.494;2023-07-09T08:53:43;100647.91;;;32.58;47.37
16355;BME280;8287;51.644;8.494;2023-07-09T08:56:13;100646.63;;;32.71;47.01
16355;BME280;8287;51.644;8.494;2023-07-09T08:58:42;100641.03;;;32.75;45.52
16355;BME280;8287;51.644;8.494;2023-07-09T09:01:17;100652.94;;;32.13;47.61
16355;BME280;8287;51.644;8.494;2023-07-09T09:03:47;100649.03;;;32.48;47.78
16355;BME280;8287;51.644;8.494;2023-07-09T09:06:17;100646.84;;;32.43;46.20
16355;BME280;8287;51.644;8.494;2023-07-09T09:08:53;100649.63;;;32.18;47.67
16355;BME280;8287;51.644;8.494;2023-07-09T09:11:31;100649.19;;;32.19;46.38
16355;BME280;8287;51.644;8.494;2023-07-09T09:14:06;100647.75;;;32.40;48.24
16355;BME280;8287;51.644;8.494;2023-07-09T09:16:38;100650.16;;;32.38;46.14
16355;BME280;8287;51.644;8.494;2023-07-09T09:19:15;100642.22;;;32.52;47.13
16355;BME280;8287;51.644;8.494;2023-07-09T09:21:44;100651.84;;;32.57;45.42
16355;BME280;8287;51.644;8.494;2023-07-09T09:24:15;100644.56;;;32.63;47.08
16355;BME280;8287;51.644;8.494;2023-07-09T09:26:43;100639.63;;;32.92;47.39
16355;BME280;8287;51.644;8.494;2023-07-09T09:29:12;100646.41;;;33.00;46.16
16355;BME280;8287;51.644;8.494;2023-07-09T09:31:38;100638.56;;;33.20;47.02
16355;BME280;8287;51.644;8.494;2023-07-09T09:34:17;100642.03;;;33.33;46.39
16355;BME280;8287;51.644;8.494;2023-07-09T09:36:44;100641.78;;;32.75;46.07
16355;BME280;8287;51.644;8.494;2023-07-09T09:39:11;100637.19;;;32.94;47.19
16355;BME280;8287;51.644;8.494;2023-07-09T09:41:38;100639.88;;;33.28;46.31
16355;BME280;8287;51.644;8.494;2023-07-09T09:44:05;100638.00;;;33.55;43.04
16355;BME280;8287;51.644;8.494;2023-07-09T09:46:32;100639.19;;;33.76;43.67
16355;BME280;8287;51.644;8.494;2023-07-09T09:49:01;100637.03;;;33.80;46.66
16355;BME280;8287;51.644;8.494;2023-07-09T09:51:29;100635.84;;;33.90;41.38
16355;BME280;8287;51.644;8.494;2023-07-09T09:53:58;100642.44;;;33.92;42.64
16355;BME280;8287;51.644;8.494;2023-07-09T09:56:27;100641.34;;;33.90;43.97
16355;BME280;8287;51.644;8.494;2023-07-09T09:58:56;100640.16;;;33.91;44.67
16355;BME280;8287;51.644;8.494;2023-07-09T10:01:27;100632.53;;;34.04;42.47
16355;BME280;8287;51.644;8.494;2023-07-09T10:03:56;100638.31;;;33.97;43.15
16355;BME280;8287;51.644;8.494;2023-07-09T10:06:32;100630.63;;;33.74;42.15
16355;BME280;8287;51.644;8.494;2023-07-09T10:09:02;100639.66;;;33.83;40.79
16355;BME280;8287;51.644;8.494;2023-07-09T10:11:39;100633.06;;;33.41;41.01
16355;BME280;8287;51.644;8.494;2023-07-09T10:14:22;100640.91;;;33.52;39.64
16355;BME280;8287;51.644;8.494;2023-07-09T10:16:55;100638.56;;;33.81;41.00
16355;BME280;8287;51.644;8.494;2023-07-09T10:19:31;100638.88;;;33.74;42.93
16355;BME280;8287;51.644;8.494;2023-07-09T10:22:06;100638.66;;;34.08;43.10
16355;BME280;8287;51.644;8.494;2023-07-09T10:24:44;100643.53;;;34.04;41.25
16355;BME280;8287;51.644;8.494;2023-07-09T10:27:17;100640.84;;;34.40;38.95
16355;BME280;8287;51.644;8.494;2023-07-09T10:30:02;100643.91;;;34.69;37.92
16355;BME280;8287;51.644;8.494;2023-07-09T10:32:45;100647.59;;;34.84;36.51
16355;BME280;8287;51.644;8.494;2023-07-09T10:35:18;100638.41;;;34.60;35.76
16355;BME280;8287;51.644;8.494;2023-07-09T10:38:10;100632.59;;;34.67;38.51
16355;BME280;8287;51.644;8.494;2023-07-09T10:40:42;100635.03;;;34.65;35.57
16355;BME280;8287;51.644;8.494;2023-07-09T10:43:17;100641.94;;;33.76;36.16
16355;BME280;8287;51.644;8.494;2023-07-09T10:45:47;100635.91;;;34.08;36.51
16355;BME280;8287;51.644;8.494;2023-07-09T10:48:17;100635.03;;;34.38;37.79
16355;BME280;8287;51.644;8.494;2023-07-09T10:50:48;100628.47;;;34.89;39.28
16355;BME280;8287;51.644;8.494;2023-07-09T10:53:27;100625.09;;;34.58;40.08
16355;BME280;8287;51.644;8.494;2023-07-09T10:55:59;100626.75;;;34.20;38.76
16355;BME280;8287;51.644;8.494;2023-07-09T10:58:33;100632.28;;;34.74;36.81
16355;BME280;8287;51.644;8.494;2023-07-09T11:01:01;100632.09;;;35.13;35.42
16355;BME280;8287;51.644;8.494;2023-07-09T11:03:36;100625.59;;;35.34;36.31
16355;BME280;8287;51.644;8.494;2023-07-09T11:06:11;100614.38;;;35.47;34.76
16355;BME280;8287;51.644;8.494;2023-07-09T11:08:42;100617.31;;;34.75;37.47
16355;BME280;8287;51.644;8.494;2023-07-09T11:11:15;100620.00;;;35.20;39.03
16355;BME280;8287;51.644;8.494;2023-07-09T11:13:47;100602.16;;;35.39;40.58
16355;BME280;8287;51.644;8.494;2023-07-09T11:16:30;100601.72;;;35.64;38.63
16355;BME280;8287;51.644;8.494;2023-07-09T11:19:00;100606.59;;;35.36;39.02
16355;BME280;8287;51.644;8.494;2023-07-09T11:21:27;100596.19;;;35.40;38.28
16355;BME280;8287;51.644;8.494;2023-07-09T11:23:56;100602.31;;;35.77;40.31
16355;BME280;8287;51.644;8.494;2023-07-09T11:26:26;100602.94;;;35.95;38.28
16355;BME280;8287;51.644;8.494;2023-07-09T11:28:55;100597.84;;;36.03;36.60
16355;BME280;8287;51.644;8.494;2023-07-09T11:31:24;100599.72;;;36.20;36.56
16355;BME280;8287;51.644;8.494;2023-07-09T11:34:01;100600.06;;;35.90;37.31
16355;BME280;8287;51.644;8.494;2023-07-09T11:36:30;100605.31;;;35.55;38.09
16355;BME280;8287;51.644;8.494;2023-07-09T11:38:59;100598.97;;;35.96;37.75
16355;BME280;8287;51.644;8.494;2023-07-09T11:41:33;100598.19;;;35.72;36.71
16355;BME280;8287;51.644;8.494;2023-07-09T11:44:04;100597.91;;;35.94;36.61
16355;BME280;8287;51.644;8.494;2023-07-09T11:46:32;100602.78;;;36.22;35.61
16355;BME280;8287;51.644;8.494;2023-07-09T11:49:01;100609.94;;;36.29;36.64
16355;BME280;8287;51.644;8.494;2023-07-09T11:51:35;100603.28;;;36.49;35.74
16355;BME280;8287;51.644;8.494;2023-07-09T11:54:10;100600.88;;;36.28;35.69
16355;BME280;8287;51.644;8.494;2023-07-09T11:56:37;100595.25;;;36.23;35.98
16355;BME280;8287;51.644;8.494;2023-07-09T11:59:04;100586.78;;;36.64;35.60
16355;BME280;8287;51.644;8.494;2023-07-09T12:01:34;100595.25;;;37.04;35.05
16355;BME280;8287;51.644;8.494;2023-07-09T12:04:05;100589.06;;;36.65;34.31
16355;BME280;8287;51.644;8.494;2023-07-09T12:06:32;100589.56;;;36.64;35.82
16355;BME280;8287;51.644;8.494;2023-07-09T12:08:59;100577.91;;;37.03;36.21
16355;BME280;8287;51.644;8.494;2023-07-09T12:11:31;100571.84;;;36.70;34.74
16355;BME280;8287;51.644;8.494;2023-07-09T12:14:02;100569.59;;;36.45;36.93
16355;BME280;8287;51.644;8.494;2023-07-09T12:16:31;100558.19;;;36.81;36.43
16355;BME280;8287;51.644;8.494;2023-07-09T12:18:57;100556.81;;;37.35;34.67
16355;BME280;8287;51.644;8.494;2023-07-09T12:21:25;100558.41;;;37.56;32.40
16355;BME280;8287;51.644;8.494;2023-07-09T12:23:52;100556.13;;;37.74;33.83
16355;BME280;8287;51.644;8.494;2023-07-09T12:26:19;100543.53;;;37.93;33.04
16355;BME280;8287;51.644;8.494;2023-07-09T12:28:51;100542.91;;;37.64;33.80
16355;BME280;8287;51.644;8.494;2023-07-09T12:31:21;100537.72;;;37.71;36.71
16355;BME280;8287;51.644;8.494;2023-07-09T12:33:53;100531.97;;;37.75;33.77
16355;BME280;8287;51.644;8.494;2023-07-09T12:36:20;100535.38;;;38.04;32.74
16355;BME280;8287;51.644;8.494;2023-07-09T12:38:49;100524.38;;;38.10;33.82
16355;BME280;8287;51.644;8.494;2023-07-09T12:41:19;100509.69;;;37.84;35.02
16355;BME280;8287;51.644;8.494;2023-07-09T12:43:47;100512.31;;;37.53;33.73
16355;BME280;8287;51.644;8.494;2023-07-09T12:46:16;100510.03;;;37.91;35.41
16355;BME280;8287;51.644;8.494;2023-07-09T12:48:43;100514.69;;;38.00;34.77
16355;BME280;8287;51.644;8.494;2023-07-09T12:51:16;100505.38;;;38.23;35.41
16355;BME280;8287;51.644;8.494;2023-07-09T12:53:44;100503.91;;;38.53;34.89
16355;BME280;8287;51.644;8.494;2023-07-09T12:56:12;100500.03;;;38.39;31.54
16355;BME280;8287;51.644;8.494;2023-07-09T12:58:39;100491.53;;;38.48;32.13
16355;BME280;8287;51.644;8.494;2023-07-09T13:01:08;100490.63;;;38.88;31.82
16355;BME280;8287;51.644;8.494;2023-07-09T13:03:41;100490.38;;;38.91;30.98
16355;BME280;8287;51.644;8.494;2023-07-09T13:06:26;100489.88;;;38.87;31.92
16355;BME280;8287;51.644;8.494;2023-07-09T13:08:56;100483.81;;;38.89;33.36